Date,TemperatureHighF,TemperatureAvgF,TemperatureLowF,DewpointHighF,DewpointAvgF,DewpointLowF,HumidityHigh,HumidityAvg,HumidityLow,PressureMaxIn,PressureMinIn,WindSpeedMaxMPH,WindSpeedAvgMPH,GustSpeedMaxMPH,PrecipitationSumIn
2013-2-1,26.0,14.1,0.0,19.0,7.7,-4.0,87,76,64,30.56,30.20,8,1,0,0.00
2013-2-2,42.0,32.4,24.0,36.0,26.5,17.0,89,79,70,30.27,30.10,5,0,0,0.00
2013-2-3,46.0,36.4,27.0,32.0,25.6,19.0,87,67,43,30.30,29.86,9,2,0,0.00
2013-2-4,36.0,29.9,20.0,31.0,25.5,18.0,92,84,72,30.03,29.81,8,2,0,0.00
2013-2-5,56.0,35.3,20.0,38.0,27.3,18.0,93,76,41,30.14,29.94,6,1,0,0.00
2013-2-6,61.0,43.4,23.0,42.0,32.8,21.0,94,70,41,30.14,29.88,13,3,0,0.00
2013-2-7,52.0,42.7,32.0,42.0,36.8,27.0,90,80,66,30.24,29.86,7,3,0,0.00
2013-2-8,43.0,33.1,28.0,31.0,27.2,25.0,90,80,60,30.38,30.24,8,2,0,0.00
2013-2-9,49.0,38.5,28.0,36.0,31.7,25.0,92,77,59,30.26,29.75,14,5,0,0.00
2013-2-10,51.0,43.0,35.0,47.0,35.1,25.0,94,74,53,29.87,29.41,18,7,0,0.00
2013-2-11,47.0,35.9,24.0,28.0,24.9,19.0,86,66,44,30.20,29.88,1,0,0,0.00
2013-2-12,45.0,29.6,16.0,30.0,21.9,14.0,93,75,47,30.22,29.98,6,0,0,0.00
2013-2-13,56.0,36.8,21.0,31.0,24.3,18.0,91,64,32,29.98,29.80,4,0,0,0.00
2013-2-14,52.0,40.7,31.0,35.0,28.7,23.0,85,64,41,30.20,29.83,6,1,0,0.00
2013-2-15,37.0,27.7,15.0,30.0,18.4,11.0,88,69,46,30.44,30.20,8,1,0,0.00
2013-2-16,34.0,26.5,14.0,25.0,20.0,11.0,92,77,60,30.37,30.10,11,3,0,0.00
2013-2-17,58.0,40.8,22.0,35.0,27.0,17.0,88,60,39,30.10,29.65,11,4,0,0.00
2013-2-18,53.0,40.4,24.0,39.0,29.7,17.0,85,66,47,30.09,29.53,10,3,0,0.00
2013-2-19,32.0,22.3,13.0,18.0,10.1,4.0,85,62,32,30.43,30.09,4,1,0,0.00
2013-2-20,25.0,18.1,10.0,13.0,8.2,2.0,74,65,53,30.47,30.27,1,0,0,0.00
2013-2-21,25.0,22.4,20.0,23.0,18.2,12.0,93,84,64,30.30,29.84,8,1,0,0.00
2013-2-22,27.0,21.7,10.0,21.0,17.3,6.0,93,83,69,30.13,29.84,1,0,0,0.00
2013-2-23,36.0,18.8,0.0,24.0,12.7,-3.0,90,78,59,30.13,29.98,7,1,0,0.00
2013-2-24,43.0,28.2,8.0,31.0,21.8,5.0,92,77,54,30.09,29.97,4,0,0,0.00
2013-2-25,37.0,34.0,29.0,31.0,28.3,25.0,84,80,76,30.04,29.80,7,3,0,0.00
2013-2-26,35.0,32.9,30.0,32.0,30.3,28.0,94,90,80,29.90,29.68,9,6,0,0.00
2013-2-27,37.0,31.7,28.0,29.0,27.3,25.0,94,84,68,30.09,29.87,6,2,0,0.00
2013-2-28,34.0,30.8,28.0,29.0,26.3,24.0,92,83,75,30.24,30.09,6,2,0,0.00